Time;durP1;ratioP1;P1;durP2;ratioP2;P2;SDS_P1;SDS_P2;PMS_P1;PMS_P2;Temp;Humidity;BMP_temperature;BMP_pressure;BME280_temperature;BME280_humidity;BME280_pressure;Samples;Min_cycle;Max_cycle;Signal;HPM_P1;HPM_P2
2022/04/14 00:00:05;;;;;;;;;;;;;;;17.36;44.38;101296.84;5072809;28;891;-65
2022/04/14 00:02:36;;;;;;;;;;;;;;;17.35;44.76;101295.16;5066947;28;743;-65
2022/04/14 00:05:01;;;;;;;;;;;;;;;17.35;44.62;101294.31;5075497;28;814;-65
2022/04/14 00:07:26;;;;;;;;;;;;;;;17.28;44.88;101286.34;5075353;28;854;-64
2022/04/14 00:09:52;;;;;;;;;;;;;;;17.26;44.90;101289.34;5075542;28;834;-65
2022/04/14 00:12:17;;;;;;;;;;;;;;;17.33;44.89;101293.78;5076278;28;834;-65
2022/04/14 00:14:43;;;;;;;;;;;;;;;17.37;44.53;101295.72;5072631;28;761;-65
2022/04/14 00:17:08;;;;;;;;;;;;;;;17.34;44.72;101288.00;5075088;28;1184;-65
2022/04/14 00:19:34;;;;;;;;;;;;;;;17.35;44.82;101292.41;5075889;28;1914;-65
2022/04/14 00:21:59;;;;;;;;;;;;;;;17.37;44.49;101292.16;5075156;28;865;-65
2022/04/14 00:24:25;;;;;;;;;;;;;;;17.35;44.94;101291.56;5075440;28;1381;-65
2022/04/14 00:26:50;;;;;;;;;;;;;;;17.33;44.61;101300.09;5075406;28;1064;-65
2022/04/14 00:29:16;;;;;;;;;;;;;;;17.34;44.78;101307.25;5074644;28;857;-65
2022/04/14 00:31:41;;;;;;;;;;;;;;;17.31;44.53;101299.53;5074570;28;822;-65
2022/04/14 00:34:06;;;;;;;;;;;;;;;17.35;44.76;101303.41;5079142;28;814;-65
2022/04/14 00:36:35;;;;;;;;;;;;;;;17.41;44.73;101291.34;5078840;28;777;-65
2022/04/14 00:39:01;;;;;;;;;;;;;;;17.43;44.39;101296.56;5078745;28;1922;-65
2022/04/14 00:41:27;;;;;;;;;;;;;;;17.44;44.25;101293.56;5078328;28;853;-65
2022/04/14 00:43:52;;;;;;;;;;;;;;;17.43;44.46;101300.16;5078571;28;726;-65
2022/04/14 00:46:18;;;;;;;;;;;;;;;17.46;44.54;101304.31;5072481;28;1140;-65
2022/04/14 00:48:43;;;;;;;;;;;;;;;17.44;44.44;101304.53;5078963;28;854;-66
2022/04/14 00:51:09;;;;;;;;;;;;;;;17.56;44.27;101298.84;5060420;28;830;-65
2022/04/14 00:53:34;;;;;;;;;;;;;;;17.60;44.19;101304.66;5074639;28;849;-65
2022/04/14 00:56:00;;;;;;;;;;;;;;;17.70;44.15;101299.19;5078944;28;873;-65
2022/04/14 00:58:26;;;;;;;;;;;;;;;17.71;43.84;101298.09;5078325;28;1977;-65
2022/04/14 01:00:52;;;;;;;;;;;;;;;17.71;43.92;101295.34;5056400;28;807;-64
2022/04/14 01:03:18;;;;;;;;;;;;;;;17.68;43.95;101295.88;5078268;28;825;-64
2022/04/14 01:05:45;;;;;;;;;;;;;;;17.68;43.93;101306.06;5078116;28;951;-64
2022/04/14 01:08:10;;;;;;;;;;;;;;;17.64;44.25;101299.44;5078595;28;1012;-64
2022/04/14 01:10:36;;;;;;;;;;;;;;;17.57;44.55;101291.41;5060316;28;1535;-64
2022/04/14 01:13:01;;;;;;;;;;;;;;;17.62;44.19;101302.44;5078227;28;769;-65
2022/04/14 01:15:27;;;;;;;;;;;;;;;17.65;44.04;101299.16;5078413;28;818;-65
2022/04/14 01:17:52;;;;;;;;;;;;;;;17.56;44.34;101304.34;5078096;28;1902;-65
2022/04/14 01:20:18;;;;;;;;;;;;;;;17.61;44.20;101300.78;5077919;28;936;-65
2022/04/14 01:22:45;;;;;;;;;;;;;;;17.63;44.26;101301.38;5078587;28;1039;-65
2022/04/14 01:25:11;;;;;;;;;;;;;;;17.68;44.07;101300.53;5078019;28;842;-66
2022/04/14 01:27:36;;;;;;;;;;;;;;;17.63;44.26;101304.13;5077973;28;1146;-66
2022/04/14 01:30:02;;;;;;;;;;;;;;;17.62;44.19;101296.94;5078232;28;789;-66
2022/04/14 01:32:28;;;;;;;;;;;;;;;17.60;44.24;101301.91;5077334;28;805;-66
2022/04/14 01:34:53;;;;;;;;;;;;;;;17.54;44.54;101297.47;5077470;28;868;-66
2022/04/14 01:37:19;;;;;;;;;;;;;;;17.54;44.63;101297.47;5077667;28;904;-66
2022/04/14 01:39:44;;;;;;;;;;;;;;;17.54;44.51;101295.53;5077894;28;1989;-66
2022/04/14 01:42:09;;;;;;;;;;;;;;;17.53;44.58;101298.53;5077928;28;838;-65
2022/04/14 01:44:35;;;;;;;;;;;;;;;17.51;44.42;101298.00;5075123;28;782;-66
2022/04/14 01:47:01;;;;;;;;;;;;;;;17.43;44.58;101294.66;5077607;28;884;-65
2022/04/14 01:49:26;;;;;;;;;;;;;;;17.38;44.52;101291.88;5078049;28;841;-65
2022/04/14 01:51:52;;;;;;;;;;;;;;;17.38;44.61;101291.88;5077076;28;861;-65
2022/04/14 01:54:17;;;;;;;;;;;;;;;17.37;44.72;101284.72;5077738;28;861;-66
2022/04/14 01:56:44;;;;;;;;;;;;;;;17.37;44.82;101295.72;5077292;28;733;-66
2022/04/14 01:59:09;;;;;;;;;;;;;;;17.36;44.71;101298.72;5077047;28;1913;-66
2022/04/14 02:01:35;;;;;;;;;;;;;;;17.39;44.81;101299.03;5077468;28;742;-66
2022/04/14 02:04:02;;;;;;;;;;;;;;;17.37;44.86;101292.97;5077570;28;765;-65
2022/04/14 02:06:28;;;;;;;;;;;;;;;17.41;44.78;101291.34;5076644;28;896;-66
2022/04/14 02:08:53;;;;;;;;;;;;;;;17.43;44.39;101289.16;5077535;28;820;-66
2022/04/14 02:11:19;;;;;;;;;;;;;;;17.47;44.50;101288.63;5070030;28;945;-66
2022/04/14 02:13:44;;;;;;;;;;;;;;;17.46;44.44;101304.31;5076972;28;831;-66
2022/04/14 02:16:10;;;;;;;;;;;;;;;17.54;44.22;101295.53;5076048;28;1170;-65
2022/04/14 02:18:35;;;;;;;;;;;;;;;17.54;44.25;101294.72;5077036;28;1905;-64
2022/04/14 02:21:01;;;;;;;;;;;;;;;17.60;44.13;101304.66;5076806;28;829;-64
2022/04/14 02:23:26;;;;;;;;;;;;;;;17.60;44.18;101293.66;5073514;28;872;-66
2022/04/14 02:25:52;;;;;;;;;;;;;;;17.70;43.88;101292.88;5076309;28;1072;-68
2022/04/14 02:28:17;;;;;;;;;;;;;;;17.70;43.99;101288.19;5076825;28;853;-65
2022/04/14 02:30:42;;;;;;;;;;;;;;;17.77;43.75;101287.94;5076848;28;765;-63
2022/04/14 02:33:08;;;;;;;;;;;;;;;17.85;43.60;101300.34;5076869;28;782;-64
2022/04/14 02:35:33;;;;;;;;;;;;;;;17.94;43.51;101283.06;5069834;28;885;-65
2022/04/14 02:37:59;;;;;;;;;;;;;;;17.95;43.51;101287.47;5058610;28;1902;-65
2022/04/14 02:40:24;;;;;;;;;;;;;;;17.77;43.61;101293.44;5076582;28;740;-65
2022/04/14 02:42:50;;;;;;;;;;;;;;;17.48;43.54;101295.78;5076444;28;1456;-65
2022/04/14 02:45:16;;;;;;;;;;;;;;;17.13;43.14;101288.97;5076436;28;805;-64
2022/04/14 02:47:41;;;;;;;;;;;;;;;16.99;42.40;101305.09;5073578;28;802;-65
2022/04/14 02:50:07;;;;;;;;;;;;;;;16.79;41.41;101290.09;5076549;28;789;-66
2022/04/14 02:52:32;;;;;;;;;;;;;;;16.66;40.87;101301.50;5076582;28;801;-65
2022/04/14 02:54:58;;;;;;;;;;;;;;;16.52;41.09;101301.09;5075355;28;842;-65
2022/04/14 02:57:23;;;;;;;;;;;;;;;16.80;42.74;101299.13;5076377;28;797;-65
2022/04/14 02:59:49;;;;;;;;;;;;;;;17.29;45.20;101304.47;5076023;28;1969;-65
2022/04/14 03:02:14;;;;;;;;;;;;;;;17.85;44.62;101305.84;5070107;28;838;-65
2022/04/14 03:04:39;;;;;;;;;;;;;;;18.31;43.22;101303.25;5075837;28;862;-65
2022/04/14 03:07:05;;;;;;;;;;;;;;;18.46;42.84;101300.50;5076100;28;873;-65
2022/04/14 03:09:30;;;;;;;;;;;;;;;18.35;42.80;101306.28;5076371;28;850;-66
2022/04/14 03:11:56;;;;;;;;;;;;;;;17.41;44.21;101307.84;5075990;28;878;-65
2022/04/14 03:14:21;;;;;;;;;;;;;;;17.22;43.08;101310.22;5075818;28;816;-66
2022/04/14 03:16:47;;;;;;;;;;;;;;;17.01;42.20;101313.88;5082360;28;1238;-65
2022/04/14 03:19:12;;;;;;;;;;;;;;;16.74;41.29;101315.56;5075871;28;1918;-66
2022/04/14 03:21:38;;;;;;;;;;;;;;;16.65;40.92;101311.66;5058275;28;801;-66
2022/04/14 03:24:03;;;;;;;;;;;;;;;16.51;40.92;101315.91;5076323;28;936;-66
2022/04/14 03:26:29;;;;;;;;;;;;;;;16.63;41.49;101318.50;5071484;28;1013;-66
2022/04/14 03:28:54;;;;;;;;;;;;;;;16.74;42.29;101321.06;5075967;28;818;-66
2022/04/14 03:31:20;;;;;;;;;;;;;;;16.86;43.54;101322.81;5074572;28;1180;-66
2022/04/14 03:33:45;;;;;;;;;;;;;;;17.01;44.33;101314.75;5070534;28;1598;-64
2022/04/14 03:36:10;;;;;;;;;;;;;;;17.07;44.71;101323.84;5075096;28;1195;-66
2022/04/14 03:38:36;;;;;;;;;;;;;;;17.06;45.28;101317.50;5074835;28;2048;-66
2022/04/14 03:41:06;;;;;;;;;;;;;;;17.17;45.34;101317.59;5069948;28;813;-66
2022/04/14 03:43:34;;;;;;;;;;;;;;;17.22;45.37;101332.19;5075996;28;778;-66
2022/04/14 03:46:00;;;;;;;;;;;;;;;17.28;45.49;101330.31;5075985;28;887;-64
2022/04/14 03:48:25;;;;;;;;;;;;;;;17.26;45.59;101332.47;5075674;28;770;-65
2022/04/14 03:50:51;;;;;;;;;;;;;;;17.27;45.54;101331.41;5075883;28;787;-70
2022/04/14 03:53:17;;;;;;;;;;;;;;;17.33;45.46;101338.56;5072348;28;844;-69
2022/04/14 03:55:43;;;;;;;;;;;;;;;17.27;45.45;101334.97;5074592;28;1389;-67
2022/04/14 03:58:08;;;;;;;;;;;;;;;17.22;45.73;101325.84;5071287;28;1906;-70
2022/04/14 04:00:34;;;;;;;;;;;;;;;17.34;45.29;101340.22;5075281;28;980;-70
2022/04/14 04:02:59;;;;;;;;;;;;;;;17.33;45.34;101337.75;5074860;28;731;-70
2022/04/14 04:05:24;;;;;;;;;;;;;;;17.45;45.27;101347.44;5075525;28;805;-70
2022/04/14 04:07:50;;;;;;;;;;;;;;;17.47;45.15;101341.69;5078640;28;1390;-70
2022/04/14 04:10:16;;;;;;;;;;;;;;;17.52;45.20;101346.41;5079414;28;797;-68
2022/04/14 04:12:41;;;;;;;;;;;;;;;17.55;45.17;101345.88;5079751;28;952;-68
2022/04/14 04:15:07;;;;;;;;;;;;;;;17.51;44.83;101334.56;5076811;28;891;-67
2022/04/14 04:17:33;;;;;;;;;;;;;;;17.55;44.90;101343.13;5072804;28;1910;-69
2022/04/14 04:19:58;;;;;;;;;;;;;;;17.57;44.89;101349.16;5077011;28;801;-68
2022/04/14 04:22:24;;;;;;;;;;;;;;;17.60;44.46;101343.16;5077727;28;1455;-67
2022/04/14 04:24:49;;;;;;;;;;;;;;;17.56;44.65;101353.84;5079430;28;766;-67
2022/04/14 04:27:15;;;;;;;;;;;;;;;17.64;44.71;101355.25;5078866;28;1079;-67
2022/04/14 04:29:40;;;;;;;;;;;;;;;17.68;44.44;101361.06;5077356;28;817;-67
2022/04/14 04:32:06;;;;;;;;;;;;;;;17.68;44.41;101363.81;5059703;28;983;-67
2022/04/14 04:34:32;;;;;;;;;;;;;;;17.68;44.59;101367.38;5078994;28;790;-67
2022/04/14 04:36:57;;;;;;;;;;;;;;;17.72;44.27;101356.69;5079172;28;785;-68
2022/04/14 04:39:22;;;;;;;;;;;;;;;17.68;44.47;101355.56;5078598;28;1963;-68
2022/04/14 04:41:48;;;;;;;;;;;;;;;17.69;44.47;101351.72;5078769;28;774;-68
2022/04/14 04:44:13;;;;;;;;;;;;;;;17.64;44.21;101358.00;5077011;28;909;-68
2022/04/14 04:46:39;;;;;;;;;;;;;;;17.70;44.02;101353.38;5078668;28;1255;-67
2022/04/14 04:49:04;;;;;;;;;;;;;;;17.72;44.20;101362.19;5078511;28;734;-68
2022/04/14 04:51:30;;;;;;;;;;;;;;;17.70;44.28;101365.19;5078838;28;733;-68
2022/04/14 04:53:55;;;;;;;;;;;;;;;17.67;43.99;101360.25;5078858;28;853;-67
2022/04/14 04:56:20;;;;;;;;;;;;;;;17.75;44.09;101368.00;5072727;28;829;-68
2022/04/14 04:58:46;;;;;;;;;;;;;;;17.74;43.82;101371.81;5078504;28;1910;-67
2022/04/14 05:01:12;;;;;;;;;;;;;;;17.77;43.88;101370.47;5078698;28;875;-68
2022/04/14 05:03:37;;;;;;;;;;;;;;;17.77;44.04;101365.78;5078163;28;1056;-67
2022/04/14 05:06:03;;;;;;;;;;;;;;;17.81;43.62;101371.59;5078840;28;788;-68
2022/04/14 05:08:28;;;;;;;;;;;;;;;17.73;44.01;101363.84;5077976;28;805;-67
2022/04/14 05:10:54;;;;;;;;;;;;;;;17.79;43.73;101373.75;5078227;28;922;-68
2022/04/14 05:13:19;;;;;;;;;;;;;;;17.87;43.48;101380.69;5078213;28;1110;-67
2022/04/14 05:15:44;;;;;;;;;;;;;;;17.83;43.63;101372.13;5073771;28;1107;-67
2022/04/14 05:18:10;;;;;;;;;;;;;;;17.79;43.80;101380.13;5076579;28;1906;-67
2022/04/14 05:20:35;;;;;;;;;;;;;;;17.70;43.87;101380.88;5077742;28;869;-67
2022/04/14 05:23:02;;;;;;;;;;;;;;;17.49;43.80;101390.91;5077919;28;880;-67
2022/04/14 05:25:28;;;;;;;;;;;;;;;17.21;43.20;101381.94;5076975;28;1451;-68
2022/04/14 05:27:53;;;;;;;;;;;;;;;17.04;42.12;101385.63;5078060;28;782;-67
2022/04/14 05:30:19;;;;;;;;;;;;;;;16.83;41.34;101389.25;5076060;28;847;-68
2022/04/14 05:32:44;;;;;;;;;;;;;;;16.73;40.85;101392.72;5077809;28;1428;-67
2022/04/14 05:35:10;;;;;;;;;;;;;;;16.51;40.51;101387.28;5078043;28;912;-68
2022/04/14 05:37:35;;;;;;;;;;;;;;;16.51;40.52;101387.28;5077954;28;1906;-68
2022/04/14 05:40:02;;;;;;;;;;;;;;;16.62;41.35;101388.22;5077733;28;774;-68
2022/04/14 05:42:27;;;;;;;;;;;;;;;16.73;42.51;101390.81;5078049;28;820;-67
2022/04/14 05:44:53;;;;;;;;;;;;;;;16.84;43.75;101396.41;5077879;28;965;-67
2022/04/14 05:47:18;;;;;;;;;;;;;;;16.98;43.98;101397.66;5076704;28;826;-68
2022/04/14 05:49:44;;;;;;;;;;;;;;;17.04;44.69;101399.38;5077685;28;961;-68
2022/04/14 05:52:09;;;;;;;;;;;;;;;17.04;44.87;101396.63;5077762;28;881;-67
2022/04/14 05:54:35;;;;;;;;;;;;;;;17.08;45.18;101400.50;5077242;28;870;-68
2022/04/14 05:57:00;;;;;;;;;;;;;;;17.14;45.33;101392.28;5077438;28;830;-67
2022/04/14 05:59:25;;;;;;;;;;;;;;;17.18;45.13;101387.94;5077254;28;1914;-68
2022/04/14 06:01:51;;;;;;;;;;;;;;;17.27;45.43;101400.94;5077048;28;834;-68
2022/04/14 06:04:16;;;;;;;;;;;;;;;17.27;45.17;101400.09;5077574;28;880;-68
2022/04/14 06:06:42;;;;;;;;;;;;;;;17.33;45.15;101392.72;5077446;28;832;-68
2022/04/14 06:09:07;;;;;;;;;;;;;;;17.35;45.13;101402.38;5076852;28;898;-68
2022/04/14 06:11:33;;;;;;;;;;;;;;;17.41;44.87;101387.56;5077623;28;827;-68
2022/04/14 06:13:58;;;;;;;;;;;;;;;17.45;44.83;101385.94;5075533;28;1472;-68
2022/04/14 06:16:24;;;;;;;;;;;;;;;17.51;44.64;101388.72;5074377;28;1539;-68
2022/04/14 06:18:49;;;;;;;;;;;;;;;17.51;44.53;101388.72;5077252;28;1976;-67
2022/04/14 06:21:14;;;;;;;;;;;;;;;17.58;44.34;101390.13;5077132;28;802;-71
2022/04/14 06:23:40;;;;;;;;;;;;;;;17.61;44.34;101405.28;5077194;28;757;-69
2022/04/14 06:26:05;;;;;;;;;;;;;;;17.57;44.56;101396.75;5067683;28;838;-67
2022/04/14 06:28:34;;;;;;;;;;;;;;;17.57;44.47;101393.16;5058580;28;993;-66
2022/04/14 06:30:59;;;;;;;;;;;;;;;17.65;44.40;101397.34;5074773;28;1034;-67
2022/04/14 06:33:25;;;;;;;;;;;;;;;17.65;44.00;101400.91;5076554;28;1463;-66
2022/04/14 06:35:51;;;;;;;;;;;;;;;17.57;44.33;101405.00;5076206;28;861;-67
2022/04/14 06:38:16;;;;;;;;;;;;;;;17.69;43.98;101407.53;5076057;28;1913;-67
2022/04/14 06:40:42;;;;;;;;;;;;;;;17.65;44.09;101413.84;5076409;28;908;-69
2022/04/14 06:43:07;;;;;;;;;;;;;;;17.63;44.10;101414.13;5076772;28;835;-67
2022/04/14 06:45:33;;;;;;;;;;;;;;;17.68;43.74;101414.13;5070087;28;867;-68
2022/04/14 06:47:58;;;;;;;;;;;;;;;17.69;44.02;101415.78;5076376;28;849;-67
2022/04/14 06:50:24;;;;;;;;;;;;;;;17.81;43.61;101418.34;5057849;28;860;-67
2022/04/14 06:52:51;;;;;;;;;;;;;;;17.79;43.60;101426.88;5076112;28;825;-68
2022/04/14 06:55:16;;;;;;;;;;;;;;;17.76;43.63;101416.38;5076363;28;714;-67
2022/04/14 06:57:42;;;;;;;;;;;;;;;17.82;43.73;101416.41;5076213;28;1917;-67
2022/04/14 07:00:08;;;;;;;;;;;;;;;17.84;43.46;101419.72;5073217;28;950;-68
2022/04/14 07:02:35;;;;;;;;;;;;;;;17.82;43.38;101411.75;5075004;28;1026;-68
2022/04/14 07:05:00;;;;;;;;;;;;;;;17.88;43.26;101415.34;5075727;28;865;-68
2022/04/14 07:07:26;;;;;;;;;;;;;;;17.86;43.49;101414.78;5076420;28;769;-68
2022/04/14 07:09:51;;;;;;;;;;;;;;;17.79;43.38;101415.03;5076078;28;952;-67
2022/04/14 07:12:17;;;;;;;;;;;;;;;17.64;43.90;101410.25;5076144;28;922;-67
2022/04/14 07:14:42;;;;;;;;;;;;;;;17.71;43.81;101432.88;5076026;28;794;-67
2022/04/14 07:17:10;;;;;;;;;;;;;;;17.69;43.48;101425.97;5071535;28;1005;-68
2022/04/14 07:19:35;;;;;;;;;;;;;;;17.38;43.82;101434.81;5075578;28;1905;-67
2022/04/14 07:22:02;;;;;;;;;;;;;;;17.33;43.40;101436.72;5076161;28;837;-66
2022/04/14 07:24:27;;;;;;;;;;;;;;;17.23;43.44;101432.78;5075628;28;909;-68
2022/04/14 07:26:53;;;;;;;;;;;;;;;17.17;43.43;101433.00;5075725;28;1016;-67
2022/04/14 07:29:18;;;;;;;;;;;;;;;17.14;43.27;101422.53;5075725;28;737;-68
2022/04/14 07:31:45;;;;;;;;;;;;;;;17.08;43.40;101436.22;5074469;28;1073;-67
2022/04/14 07:34:11;;;;;;;;;;;;;;;17.03;43.45;101433.44;5075639;28;830;-68
2022/04/14 07:36:37;;;;;;;;;;;;;;;16.91;43.57;101430.00;5057510;28;1095;-68
2022/04/14 07:39:02;;;;;;;;;;;;;;;16.86;43.48;101425.28;5075367;28;1993;-68
2022/04/14 07:41:28;;;;;;;;;;;;;;;16.85;43.17;101418.13;5075112;28;808;-67
2022/04/14 07:43:54;;;;;;;;;;;;;;;16.81;43.43;101419.72;5075480;28;822;-68
2022/04/14 07:46:19;;;;;;;;;;;;;;;16.81;43.26;101419.72;5069989;28;891;-67
2022/04/14 07:48:45;;;;;;;;;;;;;;;16.75;43.61;101421.59;5075622;28;869;-67
2022/04/14 07:51:10;;;;;;;;;;;;;;;16.90;44.04;101412.72;5075829;28;834;-67
2022/04/14 07:53:37;;;;;;;;;;;;;;;17.13;44.45;101413.47;5075500;28;857;-66
2022/04/14 07:56:05;;;;;;;;;;;;;;;17.78;44.37;101414.22;5074098;28;897;-68
2022/04/14 07:58:31;;;;;;;;;;;;;;;18.25;42.85;101414.47;5068857;28;1894;-68
2022/04/14 08:00:56;;;;;;;;;;;;;;;18.60;41.86;101410.16;5071662;28;832;-68
2022/04/14 08:03:22;;;;;;;;;;;;;;;18.74;41.87;101405.78;5075654;28;777;-67
2022/04/14 08:05:48;;;;;;;;;;;;;;;18.50;41.77;101405.47;5075561;28;746;-67
2022/04/14 08:08:14;;;;;;;;;;;;;;;17.65;43.68;101417.41;5074638;28;798;-68
2022/04/14 08:10:40;;;;;;;;;;;;;;;17.36;43.16;101406.78;5075342;28;782;-68
2022/04/14 08:13:06;;;;;;;;;;;;;;;17.18;42.50;101412.66;5072930;28;1858;-67
2022/04/14 08:15:32;;;;;;;;;;;;;;;16.95;41.77;101400.13;5073687;28;1021;-66
2022/04/14 08:17:57;;;;;;;;;;;;;;;16.76;41.01;101406.78;5075524;28;1964;-67
2022/04/14 08:20:23;;;;;;;;;;;;;;;16.61;40.89;101412.13;5074924;28;900;-66
2022/04/14 08:22:49;;;;;;;;;;;;;;;16.59;41.39;101401.38;5075657;28;898;-67
2022/04/14 08:25:19;;;;;;;;;;;;;;;16.93;43.20;101409.44;5075171;28;822;-67
2022/04/14 08:27:46;;;;;;;;;;;;;;;17.22;44.49;101411.91;5057005;28;1320;-66
2022/04/14 08:30:12;;;;;;;;;;;;;;;17.91;43.87;101401.09;5071818;28;820;-66
2022/04/14 08:32:38;;;;;;;;;;;;;;;18.43;42.60;101411.22;5071980;28;901;-69
2022/04/14 08:35:03;;;;;;;;;;;;;;;18.62;41.93;101405.19;5075487;28;887;-68
2022/04/14 08:37:29;;;;;;;;;;;;;;;18.23;42.71;101406.47;5056540;28;1054;-68
2022/04/14 08:39:54;;;;;;;;;;;;;;;17.31;44.17;101406.75;5075684;28;1980;-68
2022/04/14 08:42:21;;;;;;;;;;;;;;;17.23;43.21;101407.22;5074926;28;758;-68
2022/04/14 08:44:47;;;;;;;;;;;;;;;17.02;42.17;101404.28;5074821;28;887;-68
2022/04/14 08:47:12;;;;;;;;;;;;;;;16.86;41.95;101397.81;5055640;28;1474;-67
2022/04/14 08:49:39;;;;;;;;;;;;;;;16.79;41.72;101410.94;5057550;28;790;-67
2022/04/14 08:52:04;;;;;;;;;;;;;;;16.56;41.18;101406.56;5057268;28;837;-67
2022/04/14 08:54:30;;;;;;;;;;;;;;;16.47;41.00;101397.16;5076875;28;869;-67
2022/04/14 08:56:58;;;;;;;;;;;;;;;16.49;41.61;101394.94;5078352;28;870;-66
2022/04/14 08:59:23;;;;;;;;;;;;;;;16.78;43.58;101390.03;5071093;28;1902;-67
2022/04/14 09:01:49;;;;;;;;;;;;;;;17.14;44.96;101392.28;5060240;28;1417;-67
2022/04/14 09:04:14;;;;;;;;;;;;;;;17.72;44.83;101400.69;5078780;28;888;-67
2022/04/14 09:06:40;;;;;;;;;;;;;;;18.34;42.89;101390.81;5078531;28;770;-67
2022/04/14 09:09:05;;;;;;;;;;;;;;;18.45;42.65;101392.50;5078307;28;857;-67
2022/04/14 09:11:31;;;;;;;;;;;;;;;18.32;43.09;101398.50;5075138;28;872;-67
2022/04/14 09:13:56;;;;;;;;;;;;;;;17.56;44.30;101395.09;5078301;28;905;-67
2022/04/14 09:16:22;;;;;;;;;;;;;;;17.21;43.81;101391.00;5059976;28;1330;-67
2022/04/14 09:18:47;;;;;;;;;;;;;;;17.01;42.80;101382.56;5078586;28;1898;-67
2022/04/14 09:21:14;;;;;;;;;;;;;;;16.79;42.06;101385.38;5077701;28;1023;-67
2022/04/14 09:23:39;;;;;;;;;;;;;;;16.69;42.03;101388.84;5078159;28;886;-67
2022/04/14 09:26:14;;;;;;;;;;;;;;;16.52;41.36;101381.56;5060232;28;1056;-68
2022/04/14 09:28:59;;;;;;;;;;;;;;;16.42;40.98;101384.16;5078382;28;817;-67
2022/04/14 09:31:24;;;;;;;;;;;;;;;16.35;41.16;101378.88;5067827;28;923;-66
2022/04/14 09:33:50;;;;;;;;;;;;;;;16.48;41.79;101371.31;5059922;28;991;-67
2022/04/14 09:36:18;;;;;;;;;;;;;;;16.58;42.48;101374.19;5075639;28;834;-67
2022/04/14 09:38:50;;;;;;;;;;;;;;;16.87;44.35;101379.41;5077950;28;1898;-66
2022/04/14 09:41:30;;;;;;;;;;;;;;;17.23;45.71;101369.56;5078242;28;738;-67
2022/04/14 09:43:56;;;;;;;;;;;;;;;17.98;44.26;101376.94;5077825;28;722;-67
2022/04/14 09:46:22;;;;;;;;;;;;;;;18.39;43.05;101366.03;5074092;28;862;-68
2022/04/14 09:49:05;;;;;;;;;;;;;;;18.42;42.85;101382.00;5077604;28;914;-68
2022/04/14 09:51:30;;;;;;;;;;;;;;;17.92;43.19;101367.81;5077374;28;854;-68
2022/04/14 09:54:03;;;;;;;;;;;;;;;17.57;43.31;101371.16;5077620;28;799;-68
2022/04/14 09:56:39;;;;;;;;;;;;;;;17.20;42.71;101374.78;5077882;28;859;-66
2022/04/14 09:59:08;;;;;;;;;;;;;;;16.91;42.09;101364.09;5077042;28;1898;-68
2022/04/14 10:01:34;;;;;;;;;;;;;;;16.73;41.63;101374.34;5074506;28;958;-67
2022/04/14 10:04:00;;;;;;;;;;;;;;;16.58;41.28;101360.47;5076648;28;870;-67
2022/04/14 10:06:25;;;;;;;;;;;;;;;16.46;41.05;101370.78;5077452;28;770;-68
2022/04/14 10:08:51;;;;;;;;;;;;;;;16.48;41.64;101372.19;5077773;28;739;-67
2022/04/14 10:11:23;;;;;;;;;;;;;;;16.54;42.45;101360.16;5077496;28;819;-67
2022/04/14 10:13:48;;;;;;;;;;;;;;;16.72;43.54;101361.69;5076818;28;786;-68
2022/04/14 10:16:14;;;;;;;;;;;;;;;16.83;44.65;101350.78;5069945;28;1019;-68
2022/04/14 10:18:39;;;;;;;;;;;;;;;16.98;45.05;101359.19;5059543;28;1902;-69
2022/04/14 10:21:05;;;;;;;;;;;;;;;17.14;44.89;101367.56;5076351;28;715;-69
2022/04/14 10:23:30;;;;;;;;;;;;;;;17.15;45.35;101355.47;5077469;28;813;-70
2022/04/14 10:25:56;;;;;;;;;;;;;;;17.16;45.42;101354.41;5059343;28;1036;-68
2022/04/14 10:28:23;;;;;;;;;;;;;;;17.19;45.63;101353.88;5075985;28;865;-68
2022/04/14 10:30:55;;;;;;;;;;;;;;;17.36;45.26;101348.22;5071732;28;883;-69
2022/04/14 10:33:20;;;;;;;;;;;;;;;17.40;44.91;101350.19;5076695;28;769;-70
2022/04/14 10:35:46;;;;;;;;;;;;;;;17.43;44.88;101343.31;5076936;28;785;-68
2022/04/14 10:38:11;;;;;;;;;;;;;;;17.47;44.72;101354.59;5077091;28;1959;-68
2022/04/14 10:40:37;;;;;;;;;;;;;;;17.54;44.57;101347.78;5073427;28;812;-68
2022/04/14 10:43:05;;;;;;;;;;;;;;;17.65;44.28;101359.66;5058653;28;794;-69
2022/04/14 10:45:32;;;;;;;;;;;;;;;17.67;44.35;101354.75;5073299;28;1059;-69
2022/04/14 10:47:58;;;;;;;;;;;;;;;17.62;44.37;101354.69;5059012;28;925;-67
2022/04/14 10:50:23;;;;;;;;;;;;;;;17.62;44.20;101340.94;5076527;28;828;-70
2022/04/14 10:53:01;;;;;;;;;;;;;;;17.65;44.21;101345.09;5076341;28;829;-67
2022/04/14 10:55:43;;;;;;;;;;;;;;;17.64;43.92;101344.25;5076095;28;911;-69
2022/04/14 10:58:26;;;;;;;;;;;;;;;17.67;43.96;101343.75;5076037;28;1906;-68
2022/04/14 11:00:52;;;;;;;;;;;;;;;17.77;43.80;101359.47;5069984;28;863;-68
2022/04/14 11:03:18;;;;;;;;;;;;;;;17.72;43.90;101346.50;5076389;28;957;-68
2022/04/14 11:05:44;;;;;;;;;;;;;;;17.69;43.71;101344.28;5075777;28;864;-67
2022/04/14 11:08:29;;;;;;;;;;;;;;;17.73;43.56;101356.41;5075941;28;881;-68
2022/04/14 11:11:07;;;;;;;;;;;;;;;17.72;43.71;101349.25;5076327;28;834;-68
2022/04/14 11:13:50;;;;;;;;;;;;;;;17.72;43.66;101341.00;5075836;28;893;-68
2022/04/14 11:16:35;;;;;;;;;;;;;;;17.80;43.76;101356.16;5068399;28;1342;-68
2022/04/14 11:19:18;;;;;;;;;;;;;;;17.81;43.54;101352.34;5075858;28;1973;-68
2022/04/14 11:22:02;;;;;;;;;;;;;;;17.84;43.38;101357.28;5075751;28;738;-68
2022/04/14 11:24:34;;;;;;;;;;;;;;;17.78;43.31;101352.84;5076084;28;793;-68
2022/04/14 11:27:18;;;;;;;;;;;;;;;17.58;43.71;101339.81;5070017;28;1032;-68
2022/04/14 11:29:44;;;;;;;;;;;;;;;17.55;43.94;101345.88;5075620;28;854;-69
2022/04/14 11:32:10;;;;;;;;;;;;;;;17.48;43.78;101340.59;5071372;28;1009;-68
2022/04/14 11:34:35;;;;;;;;;;;;;;;17.47;44.09;101338.13;5075584;28;1536;-68
2022/04/14 11:37:01;;;;;;;;;;;;;;;17.40;44.02;101327.34;5058374;28;1494;-68
2022/04/14 11:39:27;;;;;;;;;;;;;;;17.37;44.12;101327.88;5075820;28;1980;-68
2022/04/14 11:41:53;;;;;;;;;;;;;;;17.39;44.12;101323.78;5075452;28;857;-68
2022/04/14 11:44:19;;;;;;;;;;;;;;;17.30;44.32;101319.88;5071885;28;778;-68
2022/04/14 11:46:49;;;;;;;;;;;;;;;17.35;44.09;101319.06;5073581;28;1141;-68
2022/04/14 11:49:18;;;;;;;;;;;;;;;17.36;44.21;101317.97;5076003;28;806;-68
2022/04/14 11:51:49;;;;;;;;;;;;;;;17.38;44.20;101319.38;5075920;28;820;-68
2022/04/14 11:54:27;;;;;;;;;;;;;;;17.34;44.06;101318.25;5075907;28;889;-68
2022/04/14 11:56:53;;;;;;;;;;;;;;;17.36;44.20;101316.06;5074374;28;818;-68
2022/04/14 11:59:39;;;;;;;;;;;;;;;17.41;43.90;101316.09;5075793;28;1975;-68
2022/04/14 12:02:04;;;;;;;;;;;;;;;17.37;44.17;101317.72;5057946;28;1782;-68
2022/04/14 12:04:53;;;;;;;;;;;;;;;17.34;43.95;101306.44;5075161;28;776;-68
2022/04/14 12:07:19;;;;;;;;;;;;;;;17.38;44.18;101313.88;5062240;28;1587;-68
2022/04/14 12:09:44;;;;;;;;;;;;;;;17.35;44.33;101308.91;5071618;28;864;-68
2022/04/14 12:12:14;;;;;;;;;;;;;;;17.28;44.24;101306.38;5075135;28;781;-67
2022/04/14 12:14:40;;;;;;;;;;;;;;;17.28;44.17;101297.31;5075599;28;814;-67
2022/04/14 12:17:06;;;;;;;;;;;;;;;17.30;44.37;101297.88;5070147;28;1004;-67
2022/04/14 12:19:45;;;;;;;;;;;;;;;17.31;44.30;101307.78;5075103;28;1906;-68
2022/04/14 12:22:10;;;;;;;;;;;;;;;17.33;44.25;101291.84;5075332;28;895;-68
2022/04/14 12:24:36;;;;;;;;;;;;;;;17.35;43.89;101295.16;5075265;28;787;-68
2022/04/14 12:27:01;;;;;;;;;;;;;;;17.36;44.25;101298.72;5075604;28;1131;-67
2022/04/14 12:29:27;;;;;;;;;;;;;;;17.35;44.04;101292.41;5079239;28;806;-66
2022/04/14 12:31:56;;;;;;;;;;;;;;;17.41;44.11;101296.84;5078671;28;1363;-66
2022/04/14 12:34:22;;;;;;;;;;;;;;;17.36;43.88;101294.09;5079257;28;785;-67
2022/04/14 12:36:47;;;;;;;;;;;;;;;17.32;44.10;101298.44;5079054;28;832;-66
2022/04/14 12:39:20;;;;;;;;;;;;;;;17.34;44.08;101299.00;5078857;28;1914;-71
2022/04/14 12:41:45;;;;;;;;;;;;;;;17.38;43.98;101302.88;5078565;28;813;-70
2022/04/14 12:44:18;;;;;;;;;;;;;;;17.30;44.31;101297.88;5079011;28;894;-69
2022/04/14 12:46:46;;;;;;;;;;;;;;;17.23;44.48;101291.78;5078110;28;1093;-70
2022/04/14 12:49:12;;;;;;;;;;;;;;;17.21;44.07;101291.25;5060622;28;754;-67